Time;durP1;ratioP1;P1;durP2;ratioP2;P2;SDS_P1;SDS_P2;PMS_P1;PMS_P2;Temp;Humidity;BMP_temperature;BMP_pressure;BME280_temperature;BME280_humidity;BME280_pressure;Samples;Min_cycle;Max_cycle;Signal;HPM_P1;HPM_P2
2023/01/01 00:02:15;;;;;;;11.93;6.60;;;;;;;;;;5035150;28;20445;-68
2023/01/01 00:04:42;;;;;;;13.60;6.40;;;;;;;;;;5035008;28;20543;-68
2023/01/01 00:07:09;;;;;;;18.43;9.10;;;;;;;;;;5034910;28;20453;-68
2023/01/01 00:12:22;;;;;;;13.03;8.30;;;;;;;;;;5035009;28;20768;-68
2023/01/01 00:14:50;;;;;;;14.20;8.00;;;;;;;;;;5034586;28;20480;-68
2023/01/01 00:17:17;;;;;;;13.83;9.07;;;;;;;;;;5035077;28;20442;-68
2023/01/01 00:19:44;;;;;;;14.43;8.63;;;;;;;;;;5035166;28;20444;-68
2023/01/01 00:22:11;;;;;;;15.80;9.47;;;;;;;;;;5035229;28;20524;-68
2023/01/01 00:24:40;;;;;;;15.87;9.40;;;;;;;;;;5034883;28;20434;-67
2023/01/01 00:27:07;;;;;;;14.63;9.30;;;;;;;;;;5034654;28;20445;-68
2023/01/01 00:29:34;;;;;;;15.80;10.13;;;;;;;;;;5034413;28;20487;-68
2023/01/01 00:32:01;;;;;;;16.73;9.20;;;;;;;;;;5034711;28;20445;-68
2023/01/01 00:34:28;;;;;;;14.07;10.20;;;;;;;;;;5034996;28;20434;-68
2023/01/01 00:36:56;;;;;;;17.93;9.10;;;;;;;;;;5034944;28;20792;-68
2023/01/01 00:39:23;;;;;;;16.93;9.13;;;;;;;;;;5034751;28;20447;-68
2023/01/01 00:41:51;;;;;;;12.87;9.17;;;;;;;;;;5034625;28;20457;-68
2023/01/01 00:44:18;;;;;;;18.23;8.83;;;;;;;;;;5034682;28;20440;-68
2023/01/01 00:46:46;;;;;;;13.63;8.77;;;;;;;;;;5034507;28;20557;-68
2023/01/01 00:49:13;;;;;;;10.33;8.33;;;;;;;;;;5034238;28;20480;-68
2023/01/01 00:51:40;;;;;;;10.93;6.80;;;;;;;;;;5034234;28;20814;-68
2023/01/01 00:54:07;;;;;;;17.80;8.40;;;;;;;;;;5034782;28;20435;-68
2023/01/01 00:56:35;;;;;;;11.80;9.00;;;;;;;;;;5034001;28;20450;-68
2023/01/01 00:59:03;;;;;;;13.43;8.60;;;;;;;;;;5034126;28;20454;-68
2023/01/01 01:01:32;;;;;;;10.67;7.43;;;;;;;;;;5033780;28;20899;-68
2023/01/01 01:03:59;;;;;;;16.20;7.90;;;;;;;;;;5038135;28;20536;-68
2023/01/01 01:06:26;;;;;;;12.67;6.73;;;;;;;;;;5053461;28;20544;-68
2023/01/01 01:08:53;;;;;;;15.00;7.10;;;;;;;;;;5053806;28;20473;-68
2023/01/01 01:11:21;;;;;;;13.53;7.60;;;;;;;;;;5054007;28;20495;-68
2023/01/01 01:13:50;;;;;;;16.70;7.10;;;;;;;;;;5054010;28;20799;-68
2023/01/01 01:16:20;;;;;;;11.20;6.57;;;;;;;;;;5053443;28;21001;-68
2023/01/01 01:18:47;;;;;;;11.77;7.13;;;;;;;;;;5053940;28;20457;-68
2023/01/01 01:21:16;;;;;;;18.40;7.70;;;;;;;;;;5053673;28;20441;-68
2023/01/01 01:23:43;;;;;;;13.23;6.77;;;;;;;;;;5053774;28;20441;-68
2023/01/01 01:26:11;;;;;;;11.47;6.87;;;;;;;;;;5053574;28;20440;-68
2023/01/01 01:28:39;;;;;;;12.90;6.67;;;;;;;;;;5053560;28;20467;-67
2023/01/01 01:31:06;;;;;;;12.90;6.87;;;;;;;;;;5053132;28;20451;-68
2023/01/01 01:33:36;;;;;;;15.53;6.73;;;;;;;;;;5053188;28;20450;-68
2023/01/01 01:36:03;;;;;;;8.90;6.30;;;;;;;;;;5053020;28;21008;-67
2023/01/01 01:38:30;;;;;;;9.00;6.57;;;;;;;;;;5053336;28;20448;-68
2023/01/01 01:40:57;;;;;;;12.33;6.47;;;;;;;;;;5053197;28;20527;-68
2023/01/01 01:43:25;;;;;;;9.47;5.90;;;;;;;;;;5053181;28;20474;-68
2023/01/01 01:45:54;;;;;;;13.30;6.23;;;;;;;;;;5053099;28;20960;-67
2023/01/01 01:48:22;;;;;;;8.83;5.90;;;;;;;;;;5052898;28;20448;-68
2023/01/01 01:50:51;;;;;;;11.93;6.53;;;;;;;;;;5052693;28;20487;-67
2023/01/01 01:53:22;;;;;;;11.53;6.20;;;;;;;;;;5053525;28;20478;-68
2023/01/01 01:55:51;;;;;;;13.23;5.93;;;;;;;;;;5053239;28;20810;-68
2023/01/01 01:58:19;;;;;;;16.30;6.27;;;;;;;;;;5053062;28;20796;-67
2023/01/01 02:00:46;;;;;;;10.30;6.30;;;;;;;;;;5053110;28;20816;-67
2023/01/01 02:03:15;;;;;;;11.63;7.30;;;;;;;;;;5052630;28;20447;-67
2023/01/01 02:05:43;;;;;;;12.90;8.10;;;;;;;;;;5053011;28;20440;-68
2023/01/01 02:08:13;;;;;;;10.33;7.20;;;;;;;;;;5052622;28;20462;-68
2023/01/01 02:10:40;;;;;;;14.30;7.27;;;;;;;;;;5052415;28;21063;-68
2023/01/01 02:13:07;;;;;;;13.63;9.53;;;;;;;;;;5052517;28;20535;-67
2023/01/01 02:15:36;;;;;;;12.00;8.57;;;;;;;;;;5052214;28;20457;-68
2023/01/01 02:18:07;;;;;;;10.90;8.77;;;;;;;;;;5052684;28;20448;-68
2023/01/01 02:20:37;;;;;;;9.33;7.67;;;;;;;;;;5052771;28;20462;-68
2023/01/01 02:23:16;;;;;;;11.20;8.80;;;;;;;;;;5052759;28;20445;-68
2023/01/01 02:25:48;;;;;;;11.80;8.83;;;;;;;;;;5053028;28;20426;-68
2023/01/01 02:28:19;;;;;;;12.53;8.57;;;;;;;;;;5053728;28;20465;-67
2023/01/01 02:30:48;;;;;;;11.07;7.07;;;;;;;;;;5052411;28;20467;-68
2023/01/01 02:33:18;;;;;;;16.53;7.87;;;;;;;;;;5052494;28;20435;-67
2023/01/01 02:35:48;;;;;;;13.10;6.83;;;;;;;;;;5052612;28;20859;-68
2023/01/01 02:38:18;;;;;;;16.10;7.43;;;;;;;;;;5052508;28;20440;-67
2023/01/01 02:40:47;;;;;;;14.43;6.90;;;;;;;;;;5052340;28;20455;-68
2023/01/01 02:43:14;;;;;;;11.37;7.83;;;;;;;;;;5052473;28;20451;-68
2023/01/01 02:45:41;;;;;;;15.53;7.97;;;;;;;;;;5052154;28;20558;-68
2023/01/01 02:48:23;;;;;;;22.57;8.77;;;;;;;;;;5052402;28;20443;-68
2023/01/01 02:50:52;;;;;;;11.63;9.30;;;;;;;;;;5051886;28;20511;-68
2023/01/01 02:53:24;;;;;;;11.23;9.60;;;;;;;;;;5052000;28;20444;-67
2023/01/01 02:55:58;;;;;;;11.47;8.93;;;;;;;;;;5052362;28;20490;-68
2023/01/01 03:01:15;;;;;;;15.17;9.10;;;;;;;;;;5052531;28;20413;-68
2023/01/01 03:03:44;;;;;;;11.23;8.80;;;;;;;;;;5052699;28;20425;-68
2023/01/01 03:06:23;;;;;;;9.43;8.20;;;;;;;;;;5052212;28;20811;-68
2023/01/01 03:08:53;;;;;;;13.60;8.77;;;;;;;;;;5051666;28;20452;-69
2023/01/01 03:11:23;;;;;;;14.50;7.27;;;;;;;;;;5031525;28;20485;-68
2023/01/01 03:13:54;;;;;;;9.87;7.57;;;;;;;;;;5034562;28;20450;-68
2023/01/01 03:16:25;;;;;;;8.23;7.20;;;;;;;;;;5036854;28;20753;-68
2023/01/01 03:19:09;;;;;;;13.30;6.43;;;;;;;;;;5036234;28;20425;-68
2023/01/01 03:21:38;;;;;;;9.00;6.73;;;;;;;;;;5035730;28;20466;-68
2023/01/01 03:24:06;;;;;;;9.53;7.73;;;;;;;;;;5036077;28;20445;-67
2023/01/01 03:26:35;;;;;;;9.10;7.20;;;;;;;;;;5035845;28;20451;-68
2023/01/01 03:29:03;;;;;;;9.47;7.10;;;;;;;;;;5036134;28;20519;-67
2023/01/01 03:31:31;;;;;;;8.57;6.20;;;;;;;;;;5035657;28;20478;-68
2023/01/01 03:34:00;;;;;;;10.10;7.27;;;;;;;;;;5036149;28;20438;-67
2023/01/01 03:36:29;;;;;;;7.47;6.77;;;;;;;;;;5035920;28;20445;-67
2023/01/01 03:39:00;;;;;;;7.63;6.80;;;;;;;;;;5035573;28;20536;-68
2023/01/01 03:41:29;;;;;;;8.27;6.73;;;;;;;;;;5036069;28;20436;-67
2023/01/01 03:44:00;;;;;;;7.97;6.00;;;;;;;;;;5035579;28;20451;-68
2023/01/01 03:46:28;;;;;;;11.30;6.33;;;;;;;;;;5035775;28;20447;-68
2023/01/01 03:48:56;;;;;;;9.33;5.37;;;;;;;;;;5035267;28;20513;-68
2023/01/01 03:51:26;;;;;;;8.30;5.90;;;;;;;;;;5035208;28;20931;-67
2023/01/01 03:53:54;;;;;;;7.00;5.77;;;;;;;;;;5035593;28;20435;-68
2023/01/01 03:56:28;;;;;;;7.30;5.23;;;;;;;;;;5035489;28;20628;-68
2023/01/01 03:58:57;;;;;;;8.40;5.00;;;;;;;;;;5035181;28;20436;-68
2023/01/01 04:01:27;;;;;;;8.33;5.10;;;;;;;;;;5035429;28;20954;-68
2023/01/01 04:03:54;;;;;;;7.80;4.67;;;;;;;;;;5035099;28;20444;-68
2023/01/01 04:06:22;;;;;;;5.03;4.60;;;;;;;;;;5035718;28;20443;-68
2023/01/01 04:08:51;;;;;;;5.50;4.10;;;;;;;;;;5035068;28;20488;-68
2023/01/01 04:14:06;;;;;;;4.73;3.20;;;;;;;;;;5035022;28;20417;-68
2023/01/01 04:16:33;;;;;;;6.13;3.17;;;;;;;;;;5035483;28;20449;-68
2023/01/01 04:19:00;;;;;;;8.60;3.53;;;;;;;;;;5035126;28;20453;-68
2023/01/01 04:21:27;;;;;;;3.87;2.97;;;;;;;;;;5035018;28;20449;-68
2023/01/01 04:23:55;;;;;;;5.00;2.80;;;;;;;;;;5034271;28;20925;-68
2023/01/01 04:26:22;;;;;;;6.50;3.03;;;;;;;;;;5034851;28;20446;-68
2023/01/01 04:28:49;;;;;;;4.33;2.93;;;;;;;;;;5034924;28;20438;-71
2023/01/01 04:31:18;;;;;;;4.07;2.87;;;;;;;;;;5034756;28;20838;-68
2023/01/01 04:33:45;;;;;;;7.03;2.60;;;;;;;;;;5034740;28;20457;-67
2023/01/01 04:36:12;;;;;;;5.23;2.90;;;;;;;;;;5034450;28;20438;-68
2023/01/01 04:38:39;;;;;;;3.50;2.50;;;;;;;;;;5034689;28;20438;-68
2023/01/01 04:41:07;;;;;;;4.10;2.47;;;;;;;;;;5034618;28;20548;-68
2023/01/01 04:43:34;;;;;;;3.53;2.50;;;;;;;;;;5034594;28;20449;-68
2023/01/01 04:46:02;;;;;;;5.60;2.17;;;;;;;;;;5033034;28;20465;-68
2023/01/01 04:48:35;;;;;;;3.80;2.43;;;;;;;;;;5034062;28;20440;-68
2023/01/01 04:51:04;;;;;;;5.73;2.40;;;;;;;;;;5034443;28;20469;-69
2023/01/01 04:53:32;;;;;;;5.67;3.30;;;;;;;;;;5034033;28;20452;-68
2023/01/01 04:56:03;;;;;;;3.63;1.93;;;;;;;;;;5034035;28;20954;-68
2023/01/01 04:58:30;;;;;;;3.30;2.43;;;;;;;;;;5034000;28;20440;-68
2023/01/01 05:00:58;;;;;;;6.73;1.87;;;;;;;;;;5034096;28;20939;-68
2023/01/01 05:03:25;;;;;;;5.03;2.43;;;;;;;;;;5034135;28;20448;-68
2023/01/01 05:06:00;;;;;;;5.37;2.50;;;;;;;;;;5033772;28;20453;-68
2023/01/01 05:08:29;;;;;;;3.57;2.13;;;;;;;;;;5033933;28;20438;-68
2023/01/01 05:11:00;;;;;;;4.57;2.43;;;;;;;;;;5034215;28;20500;-68
2023/01/01 05:13:27;;;;;;;5.27;2.40;;;;;;;;;;5034311;28;20434;-68
2023/01/01 05:15:55;;;;;;;3.97;2.20;;;;;;;;;;5033570;28;20453;-68
2023/01/01 05:18:22;;;;;;;6.20;2.10;;;;;;;;;;5033455;28;20464;-68
2023/01/01 05:20:49;;;;;;;6.53;2.77;;;;;;;;;;5033485;28;20446;-68
2023/01/01 05:23:16;;;;;;;5.80;2.20;;;;;;;;;;5033352;28;20449;-68
2023/01/01 05:25:45;;;;;;;2.90;1.97;;;;;;;;;;5033424;28;20962;-68
2023/01/01 05:28:12;;;;;;;3.40;2.57;;;;;;;;;;5033720;28;20948;-68
2023/01/01 05:30:40;;;;;;;1.97;1.83;;;;;;;;;;5033652;28;20491;-68
2023/01/01 05:33:07;;;;;;;4.27;2.20;;;;;;;;;;5033490;28;20831;-68
2023/01/01 05:35:34;;;;;;;3.60;2.10;;;;;;;;;;5033504;28;20447;-68
2023/01/01 05:38:02;;;;;;;5.63;2.70;;;;;;;;;;5033778;28;20545;-69
2023/01/01 05:40:30;;;;;;;5.40;2.17;;;;;;;;;;5033725;28;20469;-68
2023/01/01 05:42:58;;;;;;;9.13;2.40;;;;;;;;;;5033468;28;20453;-68
2023/01/01 05:45:25;;;;;;;4.07;2.20;;;;;;;;;;5033056;28;20581;-68
2023/01/01 05:47:52;;;;;;;4.53;2.10;;;;;;;;;;5033653;28;20445;-67
2023/01/01 05:50:20;;;;;;;5.37;2.00;;;;;;;;;;5033122;28;20488;-68
2023/01/01 05:52:47;;;;;;;2.87;2.43;;;;;;;;;;5032991;28;20452;-69
2023/01/01 05:55:14;;;;;;;2.90;2.27;;;;;;;;;;5032788;28;20441;-68
2023/01/01 05:57:41;;;;;;;3.17;2.30;;;;;;;;;;5032853;28;20463;-68
2023/01/01 06:00:11;;;;;;;2.43;2.23;;;;;;;;;;5033054;28;20451;-68
2023/01/01 06:02:38;;;;;;;8.63;3.10;;;;;;;;;;5033246;28;20856;-68
2023/01/01 06:05:05;;;;;;;4.60;3.10;;;;;;;;;;5033098;28;20442;-68
2023/01/01 06:07:32;;;;;;;5.67;2.57;;;;;;;;;;5033053;28;20463;-68
2023/01/01 06:10:00;;;;;;;7.40;2.33;;;;;;;;;;5032631;28;20458;-68
2023/01/01 06:12:27;;;;;;;7.03;2.57;;;;;;;;;;5032641;28;21023;-68
2023/01/01 06:14:54;;;;;;;7.17;2.30;;;;;;;;;;5032549;28;20928;-68
2023/01/01 06:17:23;;;;;;;3.80;2.40;;;;;;;;;;5032876;28;20468;-68
2023/01/01 06:19:50;;;;;;;7.17;2.67;;;;;;;;;;5033046;28;20782;-68
2023/01/01 06:22:17;;;;;;;7.40;4.20;;;;;;;;;;5033016;28;20811;-68
2023/01/01 06:24:44;;;;;;;3.67;2.80;;;;;;;;;;5032563;28;20475;-68
2023/01/01 06:27:11;;;;;;;3.80;2.17;;;;;;;;;;5032731;28;20436;-68
2023/01/01 06:29:39;;;;;;;2.93;1.93;;;;;;;;;;5032641;28;20534;-68
2023/01/01 06:32:06;;;;;;;5.33;2.47;;;;;;;;;;5032390;28;20487;-68
2023/01/01 06:34:34;;;;;;;3.37;2.37;;;;;;;;;;5032625;28;20452;-68
2023/01/01 06:37:02;;;;;;;7.43;2.77;;;;;;;;;;5032476;28;20958;-69
2023/01/01 06:39:29;;;;;;;3.13;2.63;;;;;;;;;;5032795;28;20457;-68
2023/01/01 06:41:56;;;;;;;2.90;2.30;;;;;;;;;;5032596;28;20449;-68
2023/01/01 06:44:24;;;;;;;4.47;2.50;;;;;;;;;;5032798;28;20442;-68
2023/01/01 06:46:51;;;;;;;5.67;2.57;;;;;;;;;;5032213;28;20490;-68
2023/01/01 06:49:18;;;;;;;3.43;2.50;;;;;;;;;;5035452;28;20446;-68
2023/01/01 06:51:47;;;;;;;3.23;2.20;;;;;;;;;;5036406;28;21055;-68
2023/01/01 06:54:14;;;;;;;5.00;2.23;;;;;;;;;;5036882;28;20442;-68
2023/01/01 06:56:41;;;;;;;4.87;2.33;;;;;;;;;;5036814;28;20448;-68
2023/01/01 06:59:08;;;;;;;6.37;2.70;;;;;;;;;;5036076;28;21025;-68
2023/01/01 07:01:38;;;;;;;3.73;1.70;;;;;;;;;;5036486;28;20751;-68
2023/01/01 07:04:07;;;;;;;10.03;3.10;;;;;;;;;;5037141;28;20445;-68
2023/01/01 07:06:35;;;;;;;4.20;2.43;;;;;;;;;;5036048;28;20452;-68
2023/01/01 07:09:03;;;;;;;5.30;2.33;;;;;;;;;;5036026;28;20453;-68
2023/01/01 07:11:31;;;;;;;4.40;2.00;;;;;;;;;;5035906;28;20504;-68
2023/01/01 07:13:58;;;;;;;6.77;2.87;;;;;;;;;;5036309;28;20442;-68
2023/01/01 07:16:25;;;;;;;4.43;2.00;;;;;;;;;;5036314;28;20500;-68
2023/01/01 07:18:53;;;;;;;5.13;2.33;;;;;;;;;;5036292;28;20434;-68
2023/01/01 07:21:28;;;;;;;4.57;2.40;;;;;;;;;;5036194;28;20445;-68
2023/01/01 07:23:56;;;;;;;3.57;2.17;;;;;;;;;;5036263;28;20448;-68
2023/01/01 07:26:25;;;;;;;4.70;2.30;;;;;;;;;;5036071;28;20446;-68
2023/01/01 07:28:52;;;;;;;8.73;2.60;;;;;;;;;;5035832;28;20444;-68
2023/01/01 07:31:19;;;;;;;5.50;2.70;;;;;;;;;;5035540;28;20483;-68
2023/01/01 07:33:46;;;;;;;5.27;2.53;;;;;;;;;;5035742;28;20951;-68
2023/01/01 07:36:14;;;;;;;3.37;2.00;;;;;;;;;;5035560;28;20445;-69
2023/01/01 07:38:41;;;;;;;7.40;2.50;;;;;;;;;;5035750;28;20826;-68
2023/01/01 07:41:08;;;;;;;8.23;2.63;;;;;;;;;;5035944;28;20578;-68
2023/01/01 07:43:37;;;;;;;8.53;3.37;;;;;;;;;;5035903;28;20756;-67
2023/01/01 07:46:04;;;;;;;7.93;3.20;;;;;;;;;;5035746;28;20464;-68
2023/01/01 07:48:31;;;;;;;7.97;2.50;;;;;;;;;;5036329;28;20811;-68
2023/01/01 07:50:59;;;;;;;5.80;2.87;;;;;;;;;;5035848;28;20503;-68
2023/01/01 07:53:26;;;;;;;6.40;2.90;;;;;;;;;;5035298;28;20442;-68
2023/01/01 07:55:53;;;;;;;4.03;2.30;;;;;;;;;;5035935;28;20445;-68
2023/01/01 07:58:21;;;;;;;4.63;2.60;;;;;;;;;;5035324;28;20805;-68
2023/01/01 08:00:50;;;;;;;3.50;2.60;;;;;;;;;;5035214;28;20448;-68
2023/01/01 08:03:17;;;;;;;5.10;2.50;;;;;;;;;;5035552;28;20457;-68
2023/01/01 08:05:45;;;;;;;6.53;2.37;;;;;;;;;;5035674;28;20457;-68
2023/01/01 08:08:12;;;;;;;6.83;2.73;;;;;;;;;;5035474;28;20449;-68
2023/01/01 08:10:39;;;;;;;5.17;3.00;;;;;;;;;;5035479;28;20495;-68
2023/01/01 08:13:08;;;;;;;2.80;2.20;;;;;;;;;;5033760;28;20452;-68
2023/01/01 08:15:35;;;;;;;10.03;3.20;;;;;;;;;;5035126;28;20441;-68
2023/01/01 08:18:05;;;;;;;6.47;3.03;;;;;;;;;;5035197;28;20495;-68
2023/01/01 08:20:33;;;;;;;5.50;2.90;;;;;;;;;;5035141;28;20448;-68
2023/01/01 08:23:00;;;;;;;8.83;3.33;;;;;;;;;;5034723;28;20452;-68
2023/01/01 08:25:27;;;;;;;4.13;2.60;;;;;;;;;;5034743;28;20484;-68
2023/01/01 08:27:54;;;;;;;4.23;2.70;;;;;;;;;;5035003;28;20463;-67
2023/01/01 08:30:22;;;;;;;9.23;3.20;;;;;;;;;;5034755;28;20444;-68
2023/01/01 08:32:49;;;;;;;5.20;2.60;;;;;;;;;;5034665;28;20483;-68
2023/01/01 08:35:17;;;;;;;10.03;2.87;;;;;;;;;;5034886;28;20451;-67
2023/01/01 08:37:44;;;;;;;6.50;3.17;;;;;;;;;;5034496;28;20453;-68
2023/01/01 08:40:13;;;;;;;5.73;3.50;;;;;;;;;;5034931;28;20468;-68
2023/01/01 08:42:40;;;;;;;5.43;2.93;;;;;;;;;;5034220;28;20451;-68
2023/01/01 08:45:08;;;;;;;7.77;3.67;;;;;;;;;;5034374;28;20966;-67
2023/01/01 08:47:35;;;;;;;10.20;3.50;;;;;;;;;;5034531;28;20723;-67
2023/01/01 08:50:02;;;;;;;7.67;2.83;;;;;;;;;;5034645;28;20504;-67
2023/01/01 08:52:31;;;;;;;4.87;3.17;;;;;;;;;;5034239;28;20486;-67
2023/01/01 08:54:58;;;;;;;8.93;3.10;;;;;;;;;;5034412;28;20443;-67
2023/01/01 08:57:25;;;;;;;7.57;3.20;;;;;;;;;;5034106;28;20442;-68
2023/01/01 08:59:52;;;;;;;6.23;3.13;;;;;;;;;;5034066;28;20448;-67
2023/01/01 09:02:19;;;;;;;6.20;3.07;;;;;;;;;;5034096;28;20449;-68
2023/01/01 09:04:47;;;;;;;5.77;3.60;;;;;;;;;;5033957;28;20447;-68
2023/01/01 09:07:14;;;;;;;10.13;3.43;;;;;;;;;;5034653;28;20450;-67
2023/01/01 09:09:42;;;;;;;11.80;4.20;;;;;;;;;;5034457;28;20459;-69
2023/01/01 09:12:13;;;;;;;5.00;3.20;;;;;;;;;;5033514;28;20824;-68
2023/01/01 09:14:40;;;;;;;6.10;3.37;;;;;;;;;;5034199;28;20525;-70
2023/01/01 09:17:08;;;;;;;10.20;3.70;;;;;;;;;;5034283;28;20443;-68
2023/01/01 09:19:35;;;;;;;5.30;3.43;;;;;;;;;;5033791;28;20448;-68
2023/01/01 09:22:02;;;;;;;11.70;3.90;;;;;;;;;;5033683;28;20458;-68
2023/01/01 09:24:29;;;;;;;8.30;3.17;;;;;;;;;;5033635;28;20447;-68
2023/01/01 09:26:58;;;;;;;4.80;3.60;;;;;;;;;;5033358;28;20960;-68
2023/01/01 09:29:25;;;;;;;7.23;3.20;;;;;;;;;;5033910;28;20538;-68
2023/01/01 09:31:52;;;;;;;6.57;3.50;;;;;;;;;;5033682;28;20484;-68
2023/01/01 09:34:19;;;;;;;4.97;2.83;;;;;;;;;;5034037;28;20440;-68
2023/01/01 09:36:46;;;;;;;16.93;3.43;;;;;;;;;;5033319;28;20449;-68
2023/01/01 09:39:15;;;;;;;9.50;3.17;;;;;;;;;;5033522;28;20539;-68
2023/01/01 09:41:46;;;;;;;4.60;2.90;;;;;;;;;;5033261;28;20457;-68
2023/01/01 09:44:22;;;;;;;3.37;3.07;;;;;;;;;;5033805;28;20447;-68
2023/01/01 09:46:49;;;;;;;5.53;3.13;;;;;;;;;;5033607;28;20523;-68
2023/01/01 09:49:19;;;;;;;7.47;3.63;;;;;;;;;;5033856;28;20436;-68
2023/01/01 09:51:48;;;;;;;7.47;3.67;;;;;;;;;;5033412;28;20488;-68
2023/01/01 09:54:22;;;;;;;4.07;3.07;;;;;;;;;;5033393;28;20933;-68
2023/01/01 09:56:53;;;;;;;9.87;3.73;;;;;;;;;;5033163;28;20437;-68
2023/01/01 09:59:22;;;;;;;6.33;3.63;;;;;;;;;;5033601;28;20907;-68
2023/01/01 10:01:55;;;;;;;7.30;4.33;;;;;;;;;;5044755;28;20496;-68
2023/01/01 10:04:31;;;;;;;7.50;4.10;;;;;;;;;;5053703;28;20440;-68
2023/01/01 10:07:03;;;;;;;7.67;3.80;;;;;;;;;;5052752;28;20444;-68
2023/01/01 10:09:34;;;;;;;7.10;3.80;;;;;;;;;;5053558;28;20907;-68
2023/01/01 10:12:05;;;;;;;7.80;4.30;;;;;;;;;;5053114;28;20486;-68
2023/01/01 10:14:36;;;;;;;8.13;3.67;;;;;;;;;;5034957;28;20439;-69
2023/01/01 10:17:04;;;;;;;5.70;4.30;;;;;;;;;;5033010;28;20435;-68
2023/01/01 10:19:35;;;;;;;5.50;4.03;;;;;;;;;;5032767;28;20451;-66
2023/01/01 10:22:04;;;;;;;10.20;5.70;;;;;;;;;;5033337;28;20439;-67
2023/01/01 10:24:37;;;;;;;5.10;4.07;;;;;;;;;;5032759;28;20438;-66
2023/01/01 10:27:05;;;;;;;7.90;4.40;;;;;;;;;;5032854;28;20428;-67
2023/01/01 10:29:37;;;;;;;7.87;4.40;;;;;;;;;;5033268;28;20439;-67
2023/01/01 10:32:09;;;;;;;13.13;4.93;;;;;;;;;;5032577;28;20970;-66
2023/01/01 10:34:36;;;;;;;7.30;4.43;;;;;;;;;;5033099;28;20434;-68
2023/01/01 10:37:04;;;;;;;8.30;5.40;;;;;;;;;;5031826;28;20542;-68
2023/01/01 10:39:31;;;;;;;6.83;4.97;;;;;;;;;;5032938;28;20538;-68
2023/01/01 10:41:59;;;;;;;8.00;4.57;;;;;;;;;;5032797;28;20439;-68
2023/01/01 10:44:27;;;;;;;11.03;5.03;;;;;;;;;;5032642;28;20446;-69
2023/01/01 10:46:58;;;;;;;10.93;6.03;;;;;;;;;;5032692;28;20534;-70
2023/01/01 10:49:25;;;;;;;7.43;5.23;;;;;;;;;;5032928;28;20433;-70
2023/01/01 10:51:53;;;;;;;10.87;5.50;;;;;;;;;;5033273;28;20810;-70
2023/01/01 10:54:33;;;;;;;13.10;5.43;;;;;;;;;;5032857;28;20445;-70
2023/01/01 10:57:00;;;;;;;9.47;5.53;;;;;;;;;;5032482;28;20934;-68
2023/01/01 10:59:37;;;;;;;9.60;5.47;;;;;;;;;;5032530;28;20447;-67
2023/01/01 11:02:18;;;;;;;7.60;5.23;;;;;;;;;;5032567;28;20438;-67
2023/01/01 11:04:45;;;;;;;8.43;5.27;;;;;;;;;;5032412;28;20786;-67
2023/01/01 11:07:18;;;;;;;8.63;6.03;;;;;;;;;;5032651;28;20532;-67
2023/01/01 11:09:48;;;;;;;7.97;4.60;;;;;;;;;;5032362;28;20452;-67
2023/01/01 11:12:19;;;;;;;10.97;5.40;;;;;;;;;;5032414;28;20561;-68
2023/01/01 11:14:49;;;;;;;7.40;5.23;;;;;;;;;;5032464;28;20844;-67
2023/01/01 11:17:23;;;;;;;7.33;5.07;;;;;;;;;;5033166;28;20517;-67
2023/01/01 11:19:51;;;;;;;8.10;5.30;;;;;;;;;;5032584;28;20443;-67
2023/01/01 11:22:33;;;;;;;16.40;5.47;;;;;;;;;;5032616;28;20923;-67
2023/01/01 11:25:00;;;;;;;13.10;5.37;;;;;;;;;;5032844;28;20424;-67
2023/01/01 11:27:27;;;;;;;12.60;5.83;;;;;;;;;;5032128;28;20444;-67
2023/01/01 11:30:14;;;;;;;10.40;5.60;;;;;;;;;;5031890;28;20949;-67
2023/01/01 11:32:43;;;;;;;7.03;5.30;;;;;;;;;;5032265;28;20589;-67
2023/01/01 11:35:18;;;;;;;9.50;5.73;;;;;;;;;;5034884;28;20458;-68
2023/01/01 11:37:46;;;;;;;7.53;5.17;;;;;;;;;;5035729;28;20451;-67
2023/01/01 11:40:17;;;;;;;8.87;5.70;;;;;;;;;;5035724;28;20647;-68
2023/01/01 11:42:46;;;;;;;9.37;6.10;;;;;;;;;;5036082;28;20444;-67
2023/01/01 11:45:17;;;;;;;14.00;6.33;;;;;;;;;;5035796;28;20456;-67
2023/01/01 11:47:46;;;;;;;13.23;6.50;;;;;;;;;;5035861;28;20537;-68
2023/01/01 11:50:20;;;;;;;7.20;5.53;;;;;;;;;;5035714;28;20448;-67
2023/01/01 11:52:48;;;;;;;8.10;5.30;;;;;;;;;;5035400;28;20471;-67
2023/01/01 11:55:21;;;;;;;10.67;6.00;;;;;;;;;;5035778;28;20756;-67
2023/01/01 11:57:52;;;;;;;10.50;6.50;;;;;;;;;;5035690;28;20441;-68
2023/01/01 12:00:19;;;;;;;9.50;5.87;;;;;;;;;;5035558;28;20428;-68
2023/01/01 12:02:52;;;;;;;12.07;4.80;;;;;;;;;;5035809;28;20442;-67
2023/01/01 12:05:21;;;;;;;9.30;5.17;;;;;;;;;;5035283;28;20436;-67
2023/01/01 12:07:49;;;;;;;6.67;4.03;;;;;;;;;;5035515;28;20439;-68
2023/01/01 12:10:19;;;;;;;11.90;5.23;;;;;;;;;;5034811;28;20570;-68
2023/01/01 12:12:49;;;;;;;9.23;4.47;;;;;;;;;;5035301;28;20477;-68
2023/01/01 12:15:19;;;;;;;14.20;3.93;;;;;;;;;;5035297;28;20907;-68
2023/01/01 12:17:48;;;;;;;7.67;3.70;;;;;;;;;;5035334;28;20540;-68
2023/01/01 12:20:20;;;;;;;6.30;3.67;;;;;;;;;;5035156;28;20801;-68
2023/01/01 12:22:48;;;;;;;8.40;4.60;;;;;;;;;;5035338;28;20461;-67
2023/01/01 12:25:17;;;;;;;7.07;3.50;;;;;;;;;;5034955;28;20452;-68
2023/01/01 12:27:56;;;;;;;11.20;3.30;;;;;;;;;;5035145;28;20444;-68
2023/01/01 12:30:24;;;;;;;9.47;3.87;;;;;;;;;;5035018;28;20443;-68
2023/01/01 12:33:08;;;;;;;7.40;3.60;;;;;;;;;;5035440;28;20485;-67
2023/01/01 12:35:44;;;;;;;14.13;3.63;;;;;;;;;;5034768;28;20440;-67
2023/01/01 12:38:17;;;;;;;7.73;3.17;;;;;;;;;;5034986;28;20464;-67
2023/01/01 12:40:50;;;;;;;8.53;3.50;;;;;;;;;;5034783;28;20441;-67
2023/01/01 12:43:20;;;;;;;15.10;3.77;;;;;;;;;;5035002;28;20437;-67
2023/01/01 12:45:53;;;;;;;5.57;2.97;;;;;;;;;;5033331;28;20434;-67
2023/01/01 12:48:31;;;;;;;5.90;3.47;;;;;;;;;;5034871;28;20428;-67
2023/01/01 12:51:01;;;;;;;10.50;3.77;;;;;;;;;;5034374;28;20430;-67
2023/01/01 12:53:34;;;;;;;8.60;3.50;;;;;;;;;;5034602;28;20484;-67
2023/01/01 12:56:06;;;;;;;10.20;3.53;;;;;;;;;;5034583;28;20520;-67
2023/01/01 12:58:35;;;;;;;5.10;3.13;;;;;;;;;;5034164;28;20436;-67
2023/01/01 13:01:06;;;;;;;7.20;3.93;;;;;;;;;;5034057;28;20451;-67
2023/01/01 13:03:34;;;;;;;5.17;3.80;;;;;;;;;;5034404;28;20923;-67
2023/01/01 13:06:04;;;;;;;8.70;3.37;;;;;;;;;;5034350;28;20914;-66
2023/01/01 13:08:33;;;;;;;7.80;3.50;;;;;;;;;;5033837;28;20476;-67
2023/01/01 13:11:03;;;;;;;5.33;3.40;;;;;;;;;;5033666;28;20574;-67
2023/01/01 13:13:30;;;;;;;7.00;4.30;;;;;;;;;;5034113;28;20481;-67
2023/01/01 13:15:58;;;;;;;9.40;4.13;;;;;;;;;;5033785;28;20446;-67
2023/01/01 13:18:26;;;;;;;8.10;3.37;;;;;;;;;;5033657;28;20485;-67
2023/01/01 13:20:58;;;;;;;17.13;4.73;;;;;;;;;;5034274;28;20459;-67
2023/01/01 13:23:46;;;;;;;10.50;4.13;;;;;;;;;;5033665;28;20450;-67
2023/01/01 13:26:32;;;;;;;6.80;3.63;;;;;;;;;;5034130;28;20436;-67
2023/01/01 13:29:26;;;;;;;8.30;3.33;;;;;;;;;;5034068;28;20448;-67
2023/01/01 13:32:00;;;;;;;5.60;3.50;;;;;;;;;;5009632;28;20477;-67
2023/01/01 13:34:39;;;;;;;4.40;3.03;;;;;;;;;;5033695;28;20534;-67
2023/01/01 13:37:25;;;;;;;9.80;4.20;;;;;;;;;;5033350;28;20476;-67
2023/01/01 13:39:54;;;;;;;9.90;3.50;;;;;;;;;;5033309;28;20447;-67
2023/01/01 13:42:40;;;;;;;4.50;3.30;;;;;;;;;;5033805;28;20448;-67
2023/01/01 13:45:13;;;;;;;11.07;3.80;;;;;;;;;;5033313;28;20444;-67
2023/01/01 13:47:46;;;;;;;6.73;3.17;;;;;;;;;;5033427;28;20435;-67
2023/01/01 13:50:15;;;;;;;12.43;3.43;;;;;;;;;;5033158;28;20438;-67
2023/01/01 13:52:54;;;;;;;8.33;3.40;;;;;;;;;;5032954;28;20453;-66
2023/01/01 13:55:35;;;;;;;13.93;4.30;;;;;;;;;;5033632;28;20438;-67
2023/01/01 13:58:23;;;;;;;8.63;3.40;;;;;;;;;;5032915;28;20440;-66
2023/01/01 14:00:58;;;;;;;5.00;2.97;;;;;;;;;;5029955;28;20448;-67
2023/01/01 14:03:28;;;;;;;8.30;3.57;;;;;;;;;;5033742;28;20449;-67
2023/01/01 14:05:57;;;;;;;8.47;3.00;;;;;;;;;;5032851;28;20463;-67
2023/01/01 14:08:28;;;;;;;6.80;3.50;;;;;;;;;;5032577;28;20957;-67
2023/01/01 14:10:59;;;;;;;8.27;3.30;;;;;;;;;;5033169;28;20477;-67
2023/01/01 14:13:28;;;;;;;8.40;4.20;;;;;;;;;;5033035;28;20563;-67
2023/01/01 14:15:57;;;;;;;8.00;3.60;;;;;;;;;;5032712;28;20447;-66
2023/01/01 14:18:31;;;;;;;7.27;3.90;;;;;;;;;;5032874;28;20449;-67
2023/01/01 14:20:58;;;;;;;6.13;3.30;;;;;;;;;;5033349;28;20441;-66
2023/01/01 14:23:30;;;;;;;5.77;2.93;;;;;;;;;;5032940;28;20448;-66
2023/01/01 14:25:59;;;;;;;6.77;3.27;;;;;;;;;;5032458;28;20941;-67
2023/01/01 14:28:28;;;;;;;8.27;3.00;;;;;;;;;;5032379;28;20954;-67
2023/01/01 14:30:55;;;;;;;3.73;2.50;;;;;;;;;;5033382;28;20441;-67
2023/01/01 14:33:24;;;;;;;7.10;3.10;;;;;;;;;;5032431;28;20994;-67
2023/01/01 14:35:54;;;;;;;5.70;3.10;;;;;;;;;;5032537;28;20445;-67
2023/01/01 14:38:26;;;;;;;8.77;5.30;;;;;;;;;;5032444;28;20441;-67
2023/01/01 14:41:08;;;;;;;5.03;4.30;;;;;;;;;;5032653;28;20884;-67
2023/01/01 14:43:37;;;;;;;6.63;3.47;;;;;;;;;;5030915;28;20778;-67
2023/01/01 14:46:05;;;;;;;7.00;3.67;;;;;;;;;;5032529;28;20941;-67
2023/01/01 14:48:33;;;;;;;7.20;3.97;;;;;;;;;;5032233;28;20456;-67
2023/01/01 14:51:00;;;;;;;7.00;3.90;;;;;;;;;;5032444;28;20446;-67
2023/01/01 14:53:30;;;;;;;6.73;3.43;;;;;;;;;;5032506;28;20575;-67
2023/01/01 14:55:57;;;;;;;6.70;2.93;;;;;;;;;;5032560;28;20456;-67
2023/01/01 14:58:26;;;;;;;12.37;4.20;;;;;;;;;;5032645;28;20934;-67
2023/01/01 15:00:54;;;;;;;11.70;3.87;;;;;;;;;;5032499;28;20453;-67